sensor_id;sensor_type;location;lat;lon;timestamp;P1;durP1;ratioP1;P2;durP2;ratioP2
12601;SDS011;30282;16.436;99.370;2022-12-18T00:02:15;42.50;;;29.80;;
12601;SDS011;30282;16.436;99.370;2022-12-18T00:04:44;52.40;;;28.77;;
12601;SDS011;30282;16.436;99.370;2022-12-18T00:07:13;50.57;;;30.10;;
12601;SDS011;30282;16.436;99.370;2022-12-18T00:09:42;45.47;;;28.10;;
12601;SDS011;30282;16.436;99.370;2022-12-18T00:12:11;41.53;;;29.63;;
12601;SDS011;30282;16.436;99.370;2022-12-18T00:14:40;47.90;;;29.27;;
12601;SDS011;30282;16.436;99.370;2022-12-18T00:17:09;42.17;;;29.00;;
12601;SDS011;30282;16.436;99.370;2022-12-18T00:19:40;48.23;;;30.20;;
12601;SDS011;30282;16.436;99.370;2022-12-18T00:22:09;39.27;;;28.47;;
12601;SDS011;30282;16.436;99.370;2022-12-18T00:24:38;50.23;;;29.20;;
12601;SDS011;30282;16.436;99.370;2022-12-18T00:27:07;49.00;;;28.13;;
12601;SDS011;30282;16.436;99.370;2022-12-18T00:29:37;38.87;;;28.13;;
12601;SDS011;30282;16.436;99.370;2022-12-18T00:32:07;49.57;;;29.23;;
12601;SDS011;30282;16.436;99.370;2022-12-18T00:34:36;43.10;;;27.97;;
12601;SDS011;30282;16.436;99.370;2022-12-18T00:37:07;49.83;;;28.67;;
12601;SDS011;30282;16.436;99.370;2022-12-18T00:39:36;45.50;;;31.00;;
12601;SDS011;30282;16.436;99.370;2022-12-18T00:42:05;45.20;;;29.03;;
12601;SDS011;30282;16.436;99.370;2022-12-18T00:44:52;43.27;;;26.57;;
12601;SDS011;30282;16.436;99.370;2022-12-18T00:47:21;51.70;;;30.37;;
12601;SDS011;30282;16.436;99.370;2022-12-18T00:49:50;43.23;;;29.83;;
12601;SDS011;30282;16.436;99.370;2022-12-18T00:52:21;42.40;;;27.87;;
12601;SDS011;30282;16.436;99.370;2022-12-18T00:54:50;37.07;;;26.90;;
12601;SDS011;30282;16.436;99.370;2022-12-18T00:57:20;49.23;;;31.80;;
12601;SDS011;30282;16.436;99.370;2022-12-18T00:59:49;49.17;;;28.27;;
12601;SDS011;30282;16.436;99.370;2022-12-18T01:02:20;43.43;;;29.20;;
12601;SDS011;30282;16.436;99.370;2022-12-18T01:04:49;37.93;;;26.77;;
12601;SDS011;30282;16.436;99.370;2022-12-18T01:07:18;41.50;;;27.87;;
12601;SDS011;30282;16.436;99.370;2022-12-18T01:09:49;42.90;;;27.63;;
12601;SDS011;30282;16.436;99.370;2022-12-18T01:12:19;50.30;;;27.63;;
12601;SDS011;30282;16.436;99.370;2022-12-18T01:14:48;48.77;;;27.43;;
12601;SDS011;30282;16.436;99.370;2022-12-18T01:17:17;55.70;;;28.90;;
12601;SDS011;30282;16.436;99.370;2022-12-18T01:19:46;50.03;;;28.17;;
12601;SDS011;30282;16.436;99.370;2022-12-18T01:22:15;45.47;;;27.10;;
12601;SDS011;30282;16.436;99.370;2022-12-18T01:24:46;57.90;;;28.97;;
12601;SDS011;30282;16.436;99.370;2022-12-18T01:27:15;44.60;;;27.33;;
12601;SDS011;30282;16.436;99.370;2022-12-18T01:29:44;42.10;;;29.20;;
12601;SDS011;30282;16.436;99.370;2022-12-18T01:32:13;42.53;;;28.07;;
12601;SDS011;30282;16.436;99.370;2022-12-18T01:34:43;39.47;;;26.27;;
12601;SDS011;30282;16.436;99.370;2022-12-18T01:37:12;46.50;;;27.13;;
12601;SDS011;30282;16.436;99.370;2022-12-18T01:39:41;56.77;;;29.60;;
12601;SDS011;30282;16.436;99.370;2022-12-18T01:42:13;37.63;;;27.20;;
12601;SDS011;30282;16.436;99.370;2022-12-18T01:47:35;47.43;;;32.20;;
12601;SDS011;30282;16.436;99.370;2022-12-18T01:50:07;60.23;;;33.30;;
12601;SDS011;30282;16.436;99.370;2022-12-18T01:52:42;43.00;;;31.43;;
12601;SDS011;30282;16.436;99.370;2022-12-18T01:55:18;53.73;;;30.80;;
12601;SDS011;30282;16.436;99.370;2022-12-18T01:57:53;46.37;;;25.37;;
12601;SDS011;30282;16.436;99.370;2022-12-18T02:00:25;38.17;;;22.97;;
12601;SDS011;30282;16.436;99.370;2022-12-18T02:02:54;40.30;;;22.13;;
12601;SDS011;30282;16.436;99.370;2022-12-18T02:05:26;33.77;;;22.77;;
12601;SDS011;30282;16.436;99.370;2022-12-18T02:08:06;38.80;;;23.30;;
12601;SDS011;30282;16.436;99.370;2022-12-18T02:10:44;37.07;;;21.27;;
12601;SDS011;30282;16.436;99.370;2022-12-18T02:13:21;31.33;;;21.53;;
12601;SDS011;30282;16.436;99.370;2022-12-18T02:16:01;34.80;;;23.03;;
12601;SDS011;30282;16.436;99.370;2022-12-18T02:18:38;32.93;;;21.07;;
12601;SDS011;30282;16.436;99.370;2022-12-18T02:21:12;32.17;;;21.23;;
12601;SDS011;30282;16.436;99.370;2022-12-18T02:23:52;34.80;;;22.40;;
12601;SDS011;30282;16.436;99.370;2022-12-18T02:26:34;48.70;;;21.90;;
12601;SDS011;30282;16.436;99.370;2022-12-18T02:29:06;43.77;;;21.50;;
12601;SDS011;30282;16.436;99.370;2022-12-18T02:31:40;34.80;;;20.80;;
12601;SDS011;30282;16.436;99.370;2022-12-18T02:34:13;27.63;;;18.67;;
12601;SDS011;30282;16.436;99.370;2022-12-18T02:36:43;26.30;;;19.33;;
12601;SDS011;30282;16.436;99.370;2022-12-18T02:39:13;39.50;;;19.67;;
12601;SDS011;30282;16.436;99.370;2022-12-18T02:41:47;34.60;;;20.77;;
12601;SDS011;30282;16.436;99.370;2022-12-18T02:44:17;30.40;;;20.77;;
12601;SDS011;30282;16.436;99.370;2022-12-18T02:46:46;39.23;;;20.83;;
12601;SDS011;30282;16.436;99.370;2022-12-18T02:49:26;34.70;;;21.30;;
12601;SDS011;30282;16.436;99.370;2022-12-18T02:52:02;37.37;;;23.73;;
12601;SDS011;30282;16.436;99.370;2022-12-18T02:54:38;27.73;;;19.60;;
12601;SDS011;30282;16.436;99.370;2022-12-18T02:57:24;33.83;;;20.40;;
12601;SDS011;30282;16.436;99.370;2022-12-18T03:00:03;35.53;;;22.37;;
12601;SDS011;30282;16.436;99.370;2022-12-18T03:02:36;33.67;;;22.63;;
12601;SDS011;30282;16.436;99.370;2022-12-18T03:05:13;35.70;;;20.53;;
12601;SDS011;30282;16.436;99.370;2022-12-18T03:07:45;30.30;;;19.40;;
12601;SDS011;30282;16.436;99.370;2022-12-18T03:10:18;31.23;;;19.70;;
12601;SDS011;30282;16.436;99.370;2022-12-18T03:12:53;40.17;;;20.30;;
12601;SDS011;30282;16.436;99.370;2022-12-18T03:15:30;37.30;;;20.07;;
12601;SDS011;30282;16.436;99.370;2022-12-18T03:18:03;31.87;;;20.87;;
12601;SDS011;30282;16.436;99.370;2022-12-18T03:20:36;36.00;;;19.60;;
12601;SDS011;30282;16.436;99.370;2022-12-18T03:23:11;31.07;;;20.40;;
12601;SDS011;30282;16.436;99.370;2022-12-18T03:25:44;32.07;;;20.40;;
12601;SDS011;30282;16.436;99.370;2022-12-18T03:28:16;35.37;;;19.87;;
12601;SDS011;30282;16.436;99.370;2022-12-18T03:30:49;31.90;;;20.87;;
12601;SDS011;30282;16.436;99.370;2022-12-18T03:33:23;28.63;;;19.13;;
12601;SDS011;30282;16.436;99.370;2022-12-18T03:35:55;29.53;;;20.40;;
12601;SDS011;30282;16.436;99.370;2022-12-18T03:38:24;36.53;;;21.60;;
12601;SDS011;30282;16.436;99.370;2022-12-18T03:40:56;29.80;;;19.90;;
12601;SDS011;30282;16.436;99.370;2022-12-18T03:43:35;32.33;;;21.10;;
12601;SDS011;30282;16.436;99.370;2022-12-18T03:46:12;37.40;;;21.43;;
12601;SDS011;30282;16.436;99.370;2022-12-18T03:48:46;42.83;;;20.10;;
12601;SDS011;30282;16.436;99.370;2022-12-18T03:51:22;27.47;;;20.50;;
12601;SDS011;30282;16.436;99.370;2022-12-18T03:53:56;39.80;;;20.97;;
12601;SDS011;30282;16.436;99.370;2022-12-18T03:56:28;33.73;;;21.10;;
12601;SDS011;30282;16.436;99.370;2022-12-18T03:59:02;39.20;;;21.67;;
12601;SDS011;30282;16.436;99.370;2022-12-18T04:01:34;32.40;;;20.97;;
12601;SDS011;30282;16.436;99.370;2022-12-18T04:04:06;41.23;;;22.73;;
12601;SDS011;30282;16.436;99.370;2022-12-18T04:06:37;37.23;;;20.77;;
12601;SDS011;30282;16.436;99.370;2022-12-18T04:09:08;30.50;;;20.80;;
12601;SDS011;30282;16.436;99.370;2022-12-18T04:11:40;47.17;;;21.27;;
12601;SDS011;30282;16.436;99.370;2022-12-18T04:14:12;34.43;;;21.57;;
12601;SDS011;30282;16.436;99.370;2022-12-18T04:16:41;35.70;;;21.83;;
12601;SDS011;30282;16.436;99.370;2022-12-18T04:19:10;38.97;;;21.73;;
12601;SDS011;30282;16.436;99.370;2022-12-18T04:21:39;33.33;;;21.33;;
12601;SDS011;30282;16.436;99.370;2022-12-18T04:24:09;31.77;;;21.73;;
12601;SDS011;30282;16.436;99.370;2022-12-18T04:26:38;40.27;;;20.80;;
12601;SDS011;30282;16.436;99.370;2022-12-18T04:29:07;39.37;;;21.97;;
12601;SDS011;30282;16.436;99.370;2022-12-18T04:31:38;45.13;;;20.87;;
12601;SDS011;30282;16.436;99.370;2022-12-18T04:34:08;33.97;;;20.70;;
12601;SDS011;30282;16.436;99.370;2022-12-18T04:36:37;40.73;;;22.00;;
12601;SDS011;30282;16.436;99.370;2022-12-18T04:39:06;32.90;;;21.77;;
12601;SDS011;30282;16.436;99.370;2022-12-18T04:41:35;31.50;;;20.50;;
12601;SDS011;30282;16.436;99.370;2022-12-18T04:44:09;32.50;;;20.87;;
12601;SDS011;30282;16.436;99.370;2022-12-18T04:46:40;37.17;;;22.17;;
12601;SDS011;30282;16.436;99.370;2022-12-18T04:49:09;43.57;;;22.07;;
12601;SDS011;30282;16.436;99.370;2022-12-18T04:51:38;37.23;;;21.00;;
12601;SDS011;30282;16.436;99.370;2022-12-18T04:54:07;37.20;;;21.20;;
12601;SDS011;30282;16.436;99.370;2022-12-18T04:56:37;34.40;;;23.20;;
12601;SDS011;30282;16.436;99.370;2022-12-18T04:59:06;38.83;;;21.27;;
12601;SDS011;30282;16.436;99.370;2022-12-18T05:01:35;36.73;;;22.83;;
12601;SDS011;30282;16.436;99.370;2022-12-18T05:04:06;38.93;;;22.53;;
12601;SDS011;30282;16.436;99.370;2022-12-18T05:06:35;36.43;;;21.57;;
12601;SDS011;30282;16.436;99.370;2022-12-18T05:09:04;38.17;;;23.13;;
12601;SDS011;30282;16.436;99.370;2022-12-18T05:11:36;34.27;;;20.27;;
12601;SDS011;30282;16.436;99.370;2022-12-18T05:14:06;34.33;;;21.40;;
12601;SDS011;30282;16.436;99.370;2022-12-18T05:16:35;34.40;;;23.23;;
12601;SDS011;30282;16.436;99.370;2022-12-18T05:19:06;38.17;;;22.33;;
12601;SDS011;30282;16.436;99.370;2022-12-18T05:21:35;42.13;;;22.70;;
12601;SDS011;30282;16.436;99.370;2022-12-18T05:24:04;34.17;;;21.10;;
12601;SDS011;30282;16.436;99.370;2022-12-18T05:26:33;31.90;;;21.57;;
12601;SDS011;30282;16.436;99.370;2022-12-18T05:29:02;36.13;;;23.37;;
12601;SDS011;30282;16.436;99.370;2022-12-18T05:31:32;35.53;;;22.00;;
12601;SDS011;30282;16.436;99.370;2022-12-18T05:34:01;43.33;;;24.33;;
12601;SDS011;30282;16.436;99.370;2022-12-18T05:36:33;38.73;;;23.43;;
12601;SDS011;30282;16.436;99.370;2022-12-18T05:39:04;36.73;;;22.17;;
12601;SDS011;30282;16.436;99.370;2022-12-18T05:41:33;31.23;;;22.00;;
12601;SDS011;30282;16.436;99.370;2022-12-18T05:44:02;49.87;;;22.30;;
12601;SDS011;30282;16.436;99.370;2022-12-18T05:46:31;39.33;;;22.23;;
12601;SDS011;30282;16.436;99.370;2022-12-18T05:49:01;39.23;;;23.50;;
12601;SDS011;30282;16.436;99.370;2022-12-18T05:51:32;51.00;;;23.90;;
12601;SDS011;30282;16.436;99.370;2022-12-18T05:54:01;44.37;;;23.57;;
12601;SDS011;30282;16.436;99.370;2022-12-18T05:56:30;36.10;;;22.83;;
12601;SDS011;30282;16.436;99.370;2022-12-18T05:58:59;34.00;;;22.77;;
12601;SDS011;30282;16.436;99.370;2022-12-18T06:01:28;39.23;;;24.10;;
12601;SDS011;30282;16.436;99.370;2022-12-18T06:03:58;30.17;;;22.60;;
12601;SDS011;30282;16.436;99.370;2022-12-18T06:06:27;38.50;;;23.00;;
12601;SDS011;30282;16.436;99.370;2022-12-18T06:08:58;38.87;;;23.03;;
12601;SDS011;30282;16.436;99.370;2022-12-18T06:11:28;41.80;;;24.50;;
12601;SDS011;30282;16.436;99.370;2022-12-18T06:13:57;40.67;;;24.00;;
12601;SDS011;30282;16.436;99.370;2022-12-18T06:16:27;41.07;;;25.30;;
12601;SDS011;30282;16.436;99.370;2022-12-18T06:18:56;37.30;;;24.80;;
12601;SDS011;30282;16.436;99.370;2022-12-18T06:21:25;36.37;;;23.10;;
12601;SDS011;30282;16.436;99.370;2022-12-18T06:23:54;40.73;;;22.70;;
12601;SDS011;30282;16.436;99.370;2022-12-18T06:26:25;34.73;;;22.57;;
12601;SDS011;30282;16.436;99.370;2022-12-18T06:28:54;35.93;;;23.87;;
12601;SDS011;30282;16.436;99.370;2022-12-18T06:31:24;34.83;;;25.03;;
12601;SDS011;30282;16.436;99.370;2022-12-18T06:33:53;43.13;;;24.43;;
12601;SDS011;30282;16.436;99.370;2022-12-18T06:36:22;35.80;;;23.10;;
12601;SDS011;30282;16.436;99.370;2022-12-18T06:38:51;29.63;;;21.17;;
12601;SDS011;30282;16.436;99.370;2022-12-18T06:41:20;37.63;;;23.67;;
12601;SDS011;30282;16.436;99.370;2022-12-18T06:43:51;38.60;;;23.60;;
12601;SDS011;30282;16.436;99.370;2022-12-18T06:46:20;42.70;;;24.20;;
12601;SDS011;30282;16.436;99.370;2022-12-18T06:48:49;40.53;;;24.00;;
12601;SDS011;30282;16.436;99.370;2022-12-18T06:51:19;38.80;;;25.37;;
12601;SDS011;30282;16.436;99.370;2022-12-18T06:53:49;41.87;;;25.40;;
12601;SDS011;30282;16.436;99.370;2022-12-18T06:56:18;36.60;;;24.07;;
12601;SDS011;30282;16.436;99.370;2022-12-18T06:58:47;40.57;;;23.30;;
12601;SDS011;30282;16.436;99.370;2022-12-18T07:01:18;41.00;;;24.30;;
12601;SDS011;30282;16.436;99.370;2022-12-18T07:03:51;39.80;;;25.77;;
12601;SDS011;30282;16.436;99.370;2022-12-18T07:06:21;53.43;;;26.10;;
12601;SDS011;30282;16.436;99.370;2022-12-18T07:08:53;47.50;;;26.50;;
12601;SDS011;30282;16.436;99.370;2022-12-18T07:11:23;36.13;;;24.60;;
12601;SDS011;30282;16.436;99.370;2022-12-18T07:13:52;43.53;;;25.23;;
12601;SDS011;30282;16.436;99.370;2022-12-18T07:16:23;41.30;;;27.17;;
12601;SDS011;30282;16.436;99.370;2022-12-18T07:18:54;46.93;;;25.47;;
12601;SDS011;30282;16.436;99.370;2022-12-18T07:21:23;53.90;;;26.13;;
12601;SDS011;30282;16.436;99.370;2022-12-18T07:23:53;39.80;;;26.53;;
12601;SDS011;30282;16.436;99.370;2022-12-18T07:26:22;58.57;;;28.90;;
12601;SDS011;30282;16.436;99.370;2022-12-18T07:28:54;36.27;;;25.10;;
12601;SDS011;30282;16.436;99.370;2022-12-18T07:31:26;41.37;;;25.00;;
12601;SDS011;30282;16.436;99.370;2022-12-18T07:33:55;38.30;;;26.47;;
12601;SDS011;30282;16.436;99.370;2022-12-18T07:36:24;41.20;;;24.60;;
12601;SDS011;30282;16.436;99.370;2022-12-18T07:38:54;44.03;;;25.97;;
12601;SDS011;30282;16.436;99.370;2022-12-18T07:41:23;33.83;;;24.37;;
12601;SDS011;30282;16.436;99.370;2022-12-18T07:43:52;37.90;;;24.73;;
12601;SDS011;30282;16.436;99.370;2022-12-18T07:46:21;47.63;;;26.07;;
12601;SDS011;30282;16.436;99.370;2022-12-18T07:48:53;34.53;;;24.00;;
12601;SDS011;30282;16.436;99.370;2022-12-18T07:51:22;38.33;;;25.10;;
12601;SDS011;30282;16.436;99.370;2022-12-18T07:53:51;42.37;;;25.03;;
12601;SDS011;30282;16.436;99.370;2022-12-18T07:56:20;50.13;;;26.17;;
12601;SDS011;30282;16.436;99.370;2022-12-18T07:58:49;48.70;;;24.97;;
12601;SDS011;30282;16.436;99.370;2022-12-18T08:01:18;42.97;;;25.30;;
12601;SDS011;30282;16.436;99.370;2022-12-18T08:03:47;39.80;;;24.80;;
12601;SDS011;30282;16.436;99.370;2022-12-18T08:06:18;31.73;;;24.17;;
12601;SDS011;30282;16.436;99.370;2022-12-18T08:08:48;42.17;;;24.60;;
12601;SDS011;30282;16.436;99.370;2022-12-18T08:11:18;35.70;;;24.13;;
12601;SDS011;30282;16.436;99.370;2022-12-18T08:13:47;38.37;;;24.27;;
12601;SDS011;30282;16.436;99.370;2022-12-18T08:16:16;34.90;;;23.20;;
12601;SDS011;30282;16.436;99.370;2022-12-18T08:18:46;41.30;;;23.70;;
12601;SDS011;30282;16.436;99.370;2022-12-18T08:21:16;34.40;;;23.60;;
12601;SDS011;30282;16.436;99.370;2022-12-18T08:23:48;38.80;;;25.07;;
12601;SDS011;30282;16.436;99.370;2022-12-18T08:26:19;43.17;;;24.03;;
12601;SDS011;30282;16.436;99.370;2022-12-18T08:28:48;33.20;;;22.70;;
12601;SDS011;30282;16.436;99.370;2022-12-18T08:31:18;42.27;;;25.00;;
12601;SDS011;30282;16.436;99.370;2022-12-18T08:33:48;41.37;;;24.20;;
12601;SDS011;30282;16.436;99.370;2022-12-18T08:36:19;33.40;;;23.80;;
12601;SDS011;30282;16.436;99.370;2022-12-18T08:38:49;43.80;;;24.00;;
12601;SDS011;30282;16.436;99.370;2022-12-18T08:41:18;44.27;;;24.83;;
12601;SDS011;30282;16.436;99.370;2022-12-18T08:43:47;56.13;;;24.13;;
12601;SDS011;30282;16.436;99.370;2022-12-18T08:46:34;33.97;;;24.10;;
12601;SDS011;30282;16.436;99.370;2022-12-18T08:49:04;30.90;;;24.20;;
12601;SDS011;30282;16.436;99.370;2022-12-18T08:51:36;40.13;;;24.93;;
12601;SDS011;30282;16.436;99.370;2022-12-18T08:54:05;44.13;;;26.40;;
12601;SDS011;30282;16.436;99.370;2022-12-18T08:56:35;34.03;;;22.67;;
12601;SDS011;30282;16.436;99.370;2022-12-18T08:59:04;45.77;;;25.87;;
12601;SDS011;30282;16.436;99.370;2022-12-18T09:01:33;70.80;;;42.13;;
12601;SDS011;30282;16.436;99.370;2022-12-18T09:04:02;49.93;;;27.20;;
12601;SDS011;30282;16.436;99.370;2022-12-18T09:06:31;42.43;;;27.13;;
12601;SDS011;30282;16.436;99.370;2022-12-18T09:09:02;39.70;;;26.07;;
12601;SDS011;30282;16.436;99.370;2022-12-18T09:11:32;62.67;;;33.80;;
12601;SDS011;30282;16.436;99.370;2022-12-18T09:14:01;54.20;;;34.60;;
12601;SDS011;30282;16.436;99.370;2022-12-18T09:16:31;62.83;;;36.60;;
12601;SDS011;30282;16.436;99.370;2022-12-18T09:19:01;46.40;;;26.00;;
12601;SDS011;30282;16.436;99.370;2022-12-18T09:21:31;42.80;;;26.10;;
12601;SDS011;30282;16.436;99.370;2022-12-18T09:24:04;36.27;;;24.10;;
12601;SDS011;30282;16.436;99.370;2022-12-18T09:26:33;39.20;;;23.53;;
12601;SDS011;30282;16.436;99.370;2022-12-18T09:29:03;36.70;;;25.10;;
12601;SDS011;30282;16.436;99.370;2022-12-18T09:31:32;56.30;;;24.57;;
12601;SDS011;30282;16.436;99.370;2022-12-18T09:34:05;40.00;;;25.33;;
12601;SDS011;30282;16.436;99.370;2022-12-18T09:36:34;44.83;;;24.97;;
12601;SDS011;30282;16.436;99.370;2022-12-18T09:39:05;43.20;;;25.13;;
12601;SDS011;30282;16.436;99.370;2022-12-18T09:41:39;50.20;;;23.60;;
12601;SDS011;30282;16.436;99.370;2022-12-18T09:44:15;36.13;;;24.03;;
12601;SDS011;30282;16.436;99.370;2022-12-18T09:46:52;37.27;;;23.70;;
12601;SDS011;30282;16.436;99.370;2022-12-18T09:49:30;43.67;;;27.47;;
12601;SDS011;30282;16.436;99.370;2022-12-18T09:52:05;50.33;;;26.40;;
12601;SDS011;30282;16.436;99.370;2022-12-18T09:54:41;45.37;;;26.67;;
12601;SDS011;30282;16.436;99.370;2022-12-18T09:57:14;43.57;;;28.40;;
12601;SDS011;30282;16.436;99.370;2022-12-18T09:59:47;42.47;;;26.93;;
12601;SDS011;30282;16.436;99.370;2022-12-18T10:02:21;46.13;;;27.00;;
12601;SDS011;30282;16.436;99.370;2022-12-18T10:05:02;49.00;;;28.17;;
12601;SDS011;30282;16.436;99.370;2022-12-18T10:07:42;37.93;;;25.20;;
12601;SDS011;30282;16.436;99.370;2022-12-18T10:10:30;51.00;;;26.10;;
12601;SDS011;30282;16.436;99.370;2022-12-18T10:13:08;40.37;;;24.23;;
12601;SDS011;30282;16.436;99.370;2022-12-18T10:15:48;44.83;;;24.30;;
12601;SDS011;30282;16.436;99.370;2022-12-18T10:18:38;45.10;;;24.17;;
12601;SDS011;30282;16.436;99.370;2022-12-18T10:21:22;49.20;;;23.40;;
12601;SDS011;30282;16.436;99.370;2022-12-18T10:23:57;39.90;;;23.93;;
12601;SDS011;30282;16.436;99.370;2022-12-18T10:26:39;47.57;;;24.70;;
12601;SDS011;30282;16.436;99.370;2022-12-18T10:29:10;60.30;;;26.60;;
12601;SDS011;30282;16.436;99.370;2022-12-18T10:31:41;42.83;;;26.23;;
12601;SDS011;30282;16.436;99.370;2022-12-18T10:34:11;41.70;;;26.77;;
12601;SDS011;30282;16.436;99.370;2022-12-18T10:36:40;38.10;;;24.50;;
12601;SDS011;30282;16.436;99.370;2022-12-18T10:39:17;45.27;;;24.80;;
12601;SDS011;30282;16.436;99.370;2022-12-18T10:41:49;41.10;;;24.20;;
12601;SDS011;30282;16.436;99.370;2022-12-18T10:44:19;50.73;;;26.13;;
12601;SDS011;30282;16.436;99.370;2022-12-18T10:46:49;36.27;;;25.03;;
12601;SDS011;30282;16.436;99.370;2022-12-18T10:49:23;37.67;;;25.53;;
12601;SDS011;30282;16.436;99.370;2022-12-18T10:52:04;47.43;;;24.67;;
12601;SDS011;30282;16.436;99.370;2022-12-18T10:54:35;40.73;;;26.20;;
12601;SDS011;30282;16.436;99.370;2022-12-18T10:57:16;45.77;;;26.30;;
12601;SDS011;30282;16.436;99.370;2022-12-18T10:59:57;67.40;;;35.53;;
12601;SDS011;30282;16.436;99.370;2022-12-18T11:02:33;60.03;;;38.30;;
12601;SDS011;30282;16.436;99.370;2022-12-18T11:05:20;54.37;;;35.40;;
12601;SDS011;30282;16.436;99.370;2022-12-18T11:07:52;66.87;;;37.30;;
12601;SDS011;30282;16.436;99.370;2022-12-18T11:10:23;67.97;;;37.67;;
12601;SDS011;30282;16.436;99.370;2022-12-18T11:12:57;58.60;;;37.00;;
12601;SDS011;30282;16.436;99.370;2022-12-18T11:15:40;72.40;;;40.00;;
12601;SDS011;30282;16.436;99.370;2022-12-18T11:18:16;91.67;;;47.50;;
12601;SDS011;30282;16.436;99.370;2022-12-18T11:20:50;147.47;;;71.63;;
12601;SDS011;30282;16.436;99.370;2022-12-18T11:23:21;171.70;;;83.13;;
12601;SDS011;30282;16.436;99.370;2022-12-18T11:25:51;189.57;;;86.20;;
12601;SDS011;30282;16.436;99.370;2022-12-18T11:28:28;155.33;;;85.10;;
12601;SDS011;30282;16.436;99.370;2022-12-18T11:31:17;135.07;;;74.33;;
12601;SDS011;30282;16.436;99.370;2022-12-18T11:34:01;119.87;;;64.50;;
12601;SDS011;30282;16.436;99.370;2022-12-18T11:36:33;119.07;;;60.80;;
12601;SDS011;30282;16.436;99.370;2022-12-18T11:39:09;120.57;;;60.50;;
12601;SDS011;30282;16.436;99.370;2022-12-18T11:41:47;94.50;;;53.70;;
12601;SDS011;30282;16.436;99.370;2022-12-18T11:44:42;92.70;;;52.30;;
12601;SDS011;30282;16.436;99.370;2022-12-18T11:47:16;82.03;;;48.57;;
12601;SDS011;30282;16.436;99.370;2022-12-18T11:49:52;86.73;;;48.30;;
12601;SDS011;30282;16.436;99.370;2022-12-18T11:52:28;72.27;;;43.90;;
12601;SDS011;30282;16.436;99.370;2022-12-18T11:55:05;76.50;;;46.97;;
12601;SDS011;30282;16.436;99.370;2022-12-18T11:57:42;86.43;;;45.40;;
12601;SDS011;30282;16.436;99.370;2022-12-18T12:00:22;69.53;;;43.80;;
12601;SDS011;30282;16.436;99.370;2022-12-18T12:03:00;71.33;;;44.63;;
12601;SDS011;30282;16.436;99.370;2022-12-18T12:05:51;74.53;;;43.70;;
12601;SDS011;30282;16.436;99.370;2022-12-18T12:08:34;88.93;;;46.40;;
12601;SDS011;30282;16.436;99.370;2022-12-18T12:11:16;91.60;;;47.63;;
12601;SDS011;30282;16.436;99.370;2022-12-18T12:13:59;108.07;;;55.10;;
12601;SDS011;30282;16.436;99.370;2022-12-18T12:16:51;98.10;;;58.23;;
12601;SDS011;30282;16.436;99.370;2022-12-18T12:19:29;99.90;;;55.53;;
12601;SDS011;30282;16.436;99.370;2022-12-18T12:22:16;112.00;;;59.13;;
12601;SDS011;30282;16.436;99.370;2022-12-18T12:24:55;106.53;;;59.13;;
12601;SDS011;30282;16.436;99.370;2022-12-18T12:27:43;111.30;;;60.80;;
12601;SDS011;30282;16.436;99.370;2022-12-18T12:30:20;131.87;;;72.83;;
12601;SDS011;30282;16.436;99.370;2022-12-18T12:32:57;176.00;;;95.73;;
12601;SDS011;30282;16.436;99.370;2022-12-18T12:35:42;248.10;;;140.50;;
12601;SDS011;30282;16.436;99.370;2022-12-18T12:38:17;271.30;;;161.23;;
12601;SDS011;30282;16.436;99.370;2022-12-18T12:40:51;280.63;;;172.60;;
12601;SDS011;30282;16.436;99.370;2022-12-18T12:43:31;272.53;;;143.20;;
12601;SDS011;30282;16.436;99.370;2022-12-18T12:46:05;221.37;;;118.33;;
12601;SDS011;30282;16.436;99.370;2022-12-18T12:48:37;203.33;;;106.43;;
12601;SDS011;30282;16.436;99.370;2022-12-18T12:51:11;193.73;;;102.43;;
12601;SDS011;30282;16.436;99.370;2022-12-18T12:53:44;187.27;;;94.73;;
12601;SDS011;30282;16.436;99.370;2022-12-18T12:56:13;169.30;;;87.50;;
12601;SDS011;30282;16.436;99.370;2022-12-18T12:58:46;140.53;;;77.80;;
12601;SDS011;30282;16.436;99.370;2022-12-18T13:01:26;140.80;;;78.97;;
12601;SDS011;30282;16.436;99.370;2022-12-18T13:04:06;135.33;;;74.17;;
12601;SDS011;30282;16.436;99.370;2022-12-18T13:06:47;126.57;;;67.17;;
12601;SDS011;30282;16.436;99.370;2022-12-18T13:09:22;127.57;;;69.17;;
12601;SDS011;30282;16.436;99.370;2022-12-18T13:11:51;130.87;;;70.20;;
12601;SDS011;30282;16.436;99.370;2022-12-18T13:14:37;125.87;;;66.63;;
12601;SDS011;30282;16.436;99.370;2022-12-18T13:17:14;121.67;;;66.90;;
12601;SDS011;30282;16.436;99.370;2022-12-18T13:19:49;128.77;;;72.93;;
12601;SDS011;30282;16.436;99.370;2022-12-18T13:22:21;124.00;;;68.33;;
12601;SDS011;30282;16.436;99.370;2022-12-18T13:24:51;116.60;;;65.97;;
12601;SDS011;30282;16.436;99.370;2022-12-18T13:30:41;92.67;;;48.97;;
12601;SDS011;30282;16.436;99.370;2022-12-18T13:36:16;99.67;;;54.70;;
12601;SDS011;30282;16.436;99.370;2022-12-18T13:48:31;75.40;;;45.57;;
12601;SDS011;30282;16.436;99.370;2022-12-18T13:51:04;73.63;;;42.50;;
12601;SDS011;30282;16.436;99.370;2022-12-18T13:53:38;80.13;;;41.40;;
12601;SDS011;30282;16.436;99.370;2022-12-18T13:56:15;66.10;;;41.67;;
12601;SDS011;30282;16.436;99.370;2022-12-18T13:58:45;75.27;;;39.00;;
12601;SDS011;30282;16.436;99.370;2022-12-18T14:01:21;59.77;;;40.30;;
12601;SDS011;30282;16.436;99.370;2022-12-18T14:06:37;69.17;;;37.70;;
12601;SDS011;30282;16.436;99.370;2022-12-18T14:09:12;58.80;;;37.03;;
12601;SDS011;30282;16.436;99.370;2022-12-18T14:11:48;56.40;;;34.43;;
12601;SDS011;30282;16.436;99.370;2022-12-18T14:14:45;53.40;;;36.27;;
12601;SDS011;30282;16.436;99.370;2022-12-18T14:17:15;61.43;;;35.23;;
12601;SDS011;30282;16.436;99.370;2022-12-18T14:19:45;48.60;;;34.00;;
12601;SDS011;30282;16.436;99.370;2022-12-18T14:22:17;51.30;;;34.43;;
12601;SDS011;30282;16.436;99.370;2022-12-18T14:24:59;56.70;;;33.97;;
12601;SDS011;30282;16.436;99.370;2022-12-18T14:27:41;46.97;;;33.63;;
12601;SDS011;30282;16.436;99.370;2022-12-18T14:33:04;52.17;;;33.50;;
12601;SDS011;30282;16.436;99.370;2022-12-18T14:35:37;54.67;;;36.90;;
12601;SDS011;30282;16.436;99.370;2022-12-18T14:38:19;76.97;;;34.87;;
12601;SDS011;30282;16.436;99.370;2022-12-18T14:40:54;56.87;;;34.43;;
12601;SDS011;30282;16.436;99.370;2022-12-18T14:43:25;50.97;;;34.57;;
12601;SDS011;30282;16.436;99.370;2022-12-18T14:45:58;65.67;;;36.30;;
12601;SDS011;30282;16.436;99.370;2022-12-18T14:48:33;51.97;;;34.13;;
12601;SDS011;30282;16.436;99.370;2022-12-18T14:51:05;53.33;;;34.67;;
12601;SDS011;30282;16.436;99.370;2022-12-18T14:53:46;50.73;;;34.60;;
12601;SDS011;30282;16.436;99.370;2022-12-18T14:56:23;58.07;;;36.10;;
12601;SDS011;30282;16.436;99.370;2022-12-18T14:58:54;68.20;;;37.47;;
12601;SDS011;30282;16.436;99.370;2022-12-18T15:01:26;61.13;;;36.73;;
12601;SDS011;30282;16.436;99.370;2022-12-18T15:03:57;61.07;;;37.67;;
12601;SDS011;30282;16.436;99.370;2022-12-18T15:06:29;58.63;;;36.60;;